Hauptseite
METAR-TAF:

METAR-TAF

Flughäfen :

Atar, Mauretanien

Breite: 20-30-24N, Länge: 013-02-35W, Höhe: 231 m

Beobachtung

Neuester Wetterbericht von vor 1 Stunde und 41 Minuten, um 18:00 UTC
Wind 8 kt aus West
Temperatur 38°C
Luftfeuchtigkeit 21%
Luftdruck 1011 hPa
Sichtweite: 5000 m
verbreitet Staub,

METAR: GQPA 121800Z 28008KT 5000 DU NSC 38/12 Q1011

Zeit: 19:41 (19:41 UTC)


TAF: fehlend

Wetterbeobachtungen und Prognosen von mehr als 4000 Flughäfen (METAR und TAF Bericht).

Die verfügbaren Stationen werden durch gelbe und rote Markierungen auf der Karte dargestellt.

Führen Sie die Maus auf sie, um den Namen der Station zu sehen.

Darauf klicken, um die Beobachtung von Wetterbeobachtungen und Prognosen zu sehen.

Um die Karte zu ändern : klicken Sie auf den grünen Tasten mit einem schwarzen Kreuz Zum Vergrößern, auf den grünen Button mit einem Gedankenstrich zu verkleinern, oder auf die grünen Pfeile für benachbarte Karten.


METAR-TAF: